createdAt,value
2022-10-15T00:00:24.189Z,100523.25
2022-10-15T00:02:50.872Z,100532.72
2022-10-15T00:05:17.611Z,100538.00
2022-10-15T00:07:44.259Z,100533.06
2022-10-15T00:10:10.877Z,100530.31
2022-10-15T00:12:37.491Z,100538.50
2022-10-15T00:15:05.380Z,100540.50
2022-10-15T00:17:33.268Z,100536.72
2022-10-15T00:19:59.863Z,100536.63
2022-10-15T00:22:26.508Z,100545.91
2022-10-15T00:24:53.119Z,100533.56
2022-10-15T00:27:19.787Z,100526.44
2022-10-15T00:29:46.485Z,100539.50
2022-10-15T00:32:13.170Z,100542.81
2022-10-15T00:34:39.776Z,100529.75
2022-10-15T00:37:06.508Z,100522.16
2022-10-15T00:39:33.187Z,100519.41
2022-10-15T00:41:59.881Z,100508.81
2022-10-15T00:44:29.394Z,100506.03
2022-10-15T00:46:58.137Z,100505.75
2022-10-15T00:49:24.741Z,100503.06
2022-10-15T00:52:06.886Z,100489.69
2022-10-15T00:54:37.465Z,100500.22
2022-10-15T00:57:05.719Z,100494.94
2022-10-15T00:59:33.475Z,100493.97
2022-10-15T01:02:00.995Z,100484.44
2022-10-15T01:04:27.999Z,100488.84
2022-10-15T01:06:54.591Z,100482.06
2022-10-15T01:09:21.197Z,100484.28
2022-10-15T01:11:49.739Z,100482.56
2022-10-15T01:14:35.198Z,100485.22
2022-10-15T01:17:04.749Z,100485.31
2022-10-15T01:19:31.388Z,100478.97
2022-10-15T01:22:03.980Z,100478.13
2022-10-15T01:24:45.678Z,100479.06
2022-10-15T01:27:21.079Z,100473.81
2022-10-15T01:30:00.377Z,100470.13
2022-10-15T01:32:35.020Z,100470.25
2022-10-15T01:35:28.158Z,100480.09
2022-10-15T01:38:00.117Z,100478.28
2022-10-15T01:40:48.638Z,100474.00
2022-10-15T01:46:05.269Z,100468.91
2022-10-15T01:48:33.402Z,100462.97
2022-10-15T01:51:06.498Z,100473.47
2022-10-15T01:53:34.779Z,100470.09
2022-10-15T01:56:04.759Z,100460.66
2022-10-15T01:58:32.118Z,100463.22
2022-10-15T02:00:59.273Z,100464.94
2022-10-15T02:03:25.929Z,100461.31
2022-10-15T02:06:18.846Z,100464.81
2022-10-15T02:08:45.438Z,100469.97
2022-10-15T02:11:13.560Z,100462.81
2022-10-15T02:13:51.378Z,100461.06
2022-10-15T02:16:24.158Z,100461.66
2022-10-15T02:18:55.557Z,100468.28
2022-10-15T02:21:37.971Z,100458.13
2022-10-15T02:24:35.759Z,100451.19
2022-10-15T02:27:08.108Z,100446.28
2022-10-15T02:29:48.259Z,100450.97
2022-10-15T02:38:17.252Z,100453.50
2022-10-15T02:41:06.287Z,100460.53
2022-10-15T02:43:54.936Z,100462.38
2022-10-15T02:49:08.588Z,100471.88
2022-10-15T02:51:38.457Z,100454.13
2022-10-15T02:54:18.921Z,100450.72
2022-10-15T02:57:06.249Z,100452.66
2022-10-15T02:59:35.095Z,100450.75
2022-10-15T03:02:02.019Z,100450.87
2022-10-15T03:04:40.328Z,100442.84
2022-10-15T03:07:06.957Z,100440.31
2022-10-15T03:09:33.528Z,100428.78
2022-10-15T03:12:00.119Z,100430.50
2022-10-15T03:14:26.808Z,100427.00
2022-10-15T03:16:53.468Z,100428.00
2022-10-15T03:19:20.078Z,100422.72
2022-10-15T03:21:46.668Z,100421.84
2022-10-15T03:24:13.288Z,100423.72
2022-10-15T03:26:40.097Z,100428.97
2022-10-15T03:29:06.660Z,100423.72
2022-10-15T03:31:43.021Z,100426.97
2022-10-15T03:34:16.671Z,100423.50
2022-10-15T03:36:52.597Z,100419.91
2022-10-15T03:45:31.288Z,100414.56
2022-10-15T03:53:33.191Z,100414.56
2022-10-15T03:56:03.998Z,100406.59
2022-10-15T03:58:30.618Z,100418.94
2022-10-15T04:00:57.308Z,100402.31
2022-10-15T04:03:23.936Z,100410.91
2022-10-15T04:05:54.052Z,100414.03
2022-10-15T04:08:21.376Z,100412.38
2022-10-15T04:10:48.330Z,100418.38
2022-10-15T04:13:14.919Z,100408.50
2022-10-15T04:15:41.656Z,100411.34
2022-10-15T04:18:08.405Z,100410.37
2022-10-15T04:20:34.969Z,100409.28
2022-10-15T04:23:01.707Z,100410.56
2022-10-15T04:25:28.307Z,100406.09
2022-10-15T04:27:54.990Z,100413.87
2022-10-15T04:30:21.693Z,100411.94
2022-10-15T04:32:48.257Z,100415.66
2022-10-15T04:35:14.960Z,100412.88
2022-10-15T04:37:41.680Z,100424.22
2022-10-15T04:40:08.716Z,100419.91
2022-10-15T04:42:35.437Z,100420.72
2022-10-15T04:45:02.089Z,100410.66
2022-10-15T04:47:28.709Z,100399.03
2022-10-15T04:49:55.316Z,100407.31
2022-10-15T04:52:21.995Z,100413.56
2022-10-15T04:54:48.618Z,100401.69
2022-10-15T04:57:15.347Z,100401.22
2022-10-15T04:59:43.867Z,100397.53
2022-10-15T05:02:10.987Z,100397.88
2022-10-15T05:04:37.813Z,100400.13
2022-10-15T05:07:04.417Z,100399.06
2022-10-15T05:09:31.029Z,100402.75
2022-10-15T05:11:57.606Z,100406.75
2022-10-15T05:14:24.288Z,100407.34
2022-10-15T05:16:51.008Z,100403.66
2022-10-15T05:19:18.056Z,100389.13
2022-10-15T05:21:45.003Z,100393.19
2022-10-15T05:24:11.827Z,100395.00
2022-10-15T05:26:38.438Z,100399.34
2022-10-15T05:29:05.163Z,100401.00
2022-10-15T05:31:32.660Z,100405.56
2022-10-15T05:33:59.278Z,100396.78
2022-10-15T05:36:27.238Z,100396.50
2022-10-15T05:38:55.086Z,100400.50
2022-10-15T05:41:22.077Z,100393.25
2022-10-15T05:43:49.948Z,100396.19
2022-10-15T05:46:17.115Z,100401.62
2022-10-15T05:48:43.880Z,100404.28
2022-10-15T05:51:13.228Z,100413.53
2022-10-15T05:53:40.757Z,100402.50
2022-10-15T05:56:08.573Z,100404.16
2022-10-15T05:58:37.393Z,100401.03
2022-10-15T06:01:06.178Z,100399.06
2022-10-15T06:03:34.207Z,100402.75
2022-10-15T06:06:00.778Z,100412.19
2022-10-15T06:08:28.578Z,100413.72
2022-10-15T06:10:56.350Z,100427.66
2022-10-15T06:13:23.250Z,100426.81
2022-10-15T06:15:49.919Z,100435.00
2022-10-15T06:18:16.639Z,100441.44
2022-10-15T06:20:44.171Z,100439.16
2022-10-15T06:23:11.993Z,100446.97
2022-10-15T06:25:38.646Z,100448.00
2022-10-15T06:28:06.218Z,100446.09
2022-10-15T06:30:32.907Z,100451.44
2022-10-15T06:32:59.578Z,100456.88
2022-10-15T06:35:27.138Z,100455.62
2022-10-15T06:37:53.707Z,100454.97
2022-10-15T06:40:20.316Z,100458.06
2022-10-15T06:42:47.048Z,100466.47
2022-10-15T06:45:15.875Z,100465.62
2022-10-15T06:47:44.897Z,100465.56
2022-10-15T06:50:12.316Z,100460.06
2022-10-15T06:52:38.948Z,100449.84
2022-10-15T06:55:05.928Z,100461.25
2022-10-15T06:57:32.568Z,100454.00
2022-10-15T06:59:59.356Z,100463.25
2022-10-15T07:02:26.256Z,100463.78
2022-10-15T07:04:53.127Z,100475.75
2022-10-15T07:07:19.746Z,100480.59
2022-10-15T07:09:47.687Z,100477.59
2022-10-15T07:12:14.475Z,100486.34
2022-10-15T07:14:42.487Z,100480.06
2022-10-15T07:17:09.383Z,100499.03
2022-10-15T07:19:36.040Z,100492.81
2022-10-15T07:22:02.763Z,100494.59
2022-10-15T07:24:29.398Z,100484.69
2022-10-15T07:26:56.083Z,100483.34
2022-10-15T07:29:22.844Z,100490.28
2022-10-15T07:31:49.528Z,100482.03
2022-10-15T07:34:16.237Z,100486.59
2022-10-15T07:36:42.888Z,100480.69
2022-10-15T07:39:09.997Z,100480.81
2022-10-15T07:41:36.863Z,100483.59
2022-10-15T07:44:04.027Z,100488.78
2022-10-15T07:46:30.658Z,100487.31
2022-10-15T07:48:57.299Z,100484.28
2022-10-15T07:51:24.010Z,100483.94
2022-10-15T07:53:50.887Z,100481.25
2022-10-15T07:56:17.792Z,100480.63
2022-10-15T07:58:51.529Z,100484.94
2022-10-15T08:01:18.998Z,100482.81
2022-10-15T08:03:45.847Z,100489.34
2022-10-15T08:06:12.708Z,100487.84
2022-10-15T08:08:39.529Z,100480.06
2022-10-15T08:11:10.577Z,100494.37
2022-10-15T08:13:41.468Z,100485.13
2022-10-15T08:16:08.758Z,100479.53
2022-10-15T08:18:36.441Z,100476.75
2022-10-15T08:21:03.944Z,100480.75
2022-10-15T08:23:30.667Z,100469.00
2022-10-15T08:26:00.928Z,100466.25
2022-10-15T08:28:31.618Z,100461.91
2022-10-15T08:31:02.754Z,100462.69
2022-10-15T08:33:32.615Z,100472.66
2022-10-15T08:35:59.353Z,100464.41
2022-10-15T08:38:26.019Z,100481.78
2022-10-15T08:40:54.378Z,100473.12
2022-10-15T08:43:38.768Z,100472.44
2022-10-15T08:46:11.009Z,100470.31
2022-10-15T08:48:42.228Z,100456.44
2022-10-15T08:51:18.229Z,100468.75
2022-10-15T08:53:49.747Z,100460.06
2022-10-15T08:56:19.130Z,100471.09
2022-10-15T08:58:48.802Z,100470.47
2022-10-15T09:01:48.376Z,100467.94
2022-10-15T09:04:22.568Z,100474.87
2022-10-15T09:06:52.208Z,100472.75
2022-10-15T09:09:37.331Z,100467.69
2022-10-15T09:12:09.307Z,100469.28
2022-10-15T09:14:37.838Z,100459.97
2022-10-15T09:17:06.648Z,100462.19
2022-10-15T09:19:35.616Z,100467.16
2022-10-15T09:22:03.429Z,100466.72
2022-10-15T09:24:33.229Z,100469.50
2022-10-15T09:26:59.859Z,100474.00
2022-10-15T09:29:33.565Z,100470.22
2022-10-15T09:32:16.059Z,100474.66
2022-10-15T09:34:45.337Z,100475.44
2022-10-15T09:37:18.587Z,100475.22
2022-10-15T09:39:58.440Z,100481.19
2022-10-15T09:42:30.855Z,100478.97
2022-10-15T09:45:04.109Z,100486.62
2022-10-15T09:47:32.180Z,100495.22
2022-10-15T09:49:59.006Z,100486.81
2022-10-15T09:52:51.728Z,100492.97
2022-10-15T09:55:33.869Z,100484.66
2022-10-15T09:58:06.287Z,100490.19
2022-10-15T10:00:51.379Z,100489.47
2022-10-15T10:03:18.206Z,100486.78
2022-10-15T10:05:46.088Z,100480.38
2022-10-15T10:08:22.994Z,100482.44
2022-10-15T10:10:57.287Z,100461.97
2022-10-15T10:13:47.186Z,100459.34
2022-10-15T10:16:15.431Z,100468.72
2022-10-15T10:18:50.518Z,100457.84
2022-10-15T10:21:26.868Z,100459.81
2022-10-15T10:23:53.559Z,100459.88
2022-10-15T10:26:20.961Z,100465.03
2022-10-15T10:29:00.270Z,100455.09
2022-10-15T10:31:33.799Z,100453.69
2022-10-15T10:34:01.679Z,100459.59
2022-10-15T10:36:34.447Z,100450.75
2022-10-15T10:39:03.408Z,100453.22
2022-10-15T10:41:52.342Z,100450.19
2022-10-15T10:44:39.243Z,100437.91
2022-10-15T10:47:08.731Z,100446.66
2022-10-15T10:49:38.042Z,100432.56
2022-10-15T10:52:05.913Z,100441.69
2022-10-15T10:54:33.584Z,100437.94
2022-10-15T10:57:01.754Z,100445.62
2022-10-15T10:59:33.213Z,100443.41
2022-10-15T11:01:59.928Z,100446.75
2022-10-15T11:04:29.441Z,100441.16
2022-10-15T11:06:58.906Z,100436.47
2022-10-15T11:09:44.633Z,100432.16
2022-10-15T11:12:23.280Z,100415.44
2022-10-15T11:15:05.248Z,100419.50
2022-10-15T11:17:44.279Z,100411.13
2022-10-15T11:20:50.043Z,100408.56
2022-10-15T11:23:38.480Z,100404.00
2022-10-15T11:26:19.211Z,100399.66
2022-10-15T11:28:56.439Z,100403.13
2022-10-15T11:31:40.372Z,100396.06
2022-10-15T11:34:18.980Z,100390.69
2022-10-15T11:36:45.888Z,100395.78
2022-10-15T11:39:32.847Z,100393.31
2022-10-15T11:42:17.647Z,100389.25
2022-10-15T11:44:56.532Z,100383.19
2022-10-15T11:47:36.938Z,100384.38
2022-10-15T11:50:22.847Z,100383.81
2022-10-15T11:53:05.049Z,100380.81
2022-10-15T11:55:36.984Z,100382.81
2022-10-15T11:58:07.943Z,100382.87
2022-10-15T12:00:37.450Z,100370.16
2022-10-15T12:03:19.333Z,100375.50
2022-10-15T12:05:54.810Z,100374.59
2022-10-15T12:08:24.074Z,100366.41
2022-10-15T12:10:51.042Z,100367.84
2022-10-15T12:13:23.723Z,100369.41
2022-10-15T12:15:57.085Z,100370.09
2022-10-15T12:18:40.141Z,100363.91
2022-10-15T12:21:25.890Z,100365.94
2022-10-15T12:23:52.553Z,100369.88
2022-10-15T12:26:25.387Z,100364.25
2022-10-15T12:28:53.574Z,100370.84
2022-10-15T12:31:21.028Z,100372.37
2022-10-15T12:33:50.680Z,100370.41
2022-10-15T12:36:30.667Z,100369.66
2022-10-15T12:39:07.805Z,100380.19
2022-10-15T12:41:44.138Z,100377.69
2022-10-15T12:46:53.381Z,100376.34
2022-10-15T12:49:31.311Z,100378.41
2022-10-15T12:52:01.513Z,100374.94
2022-10-15T12:54:40.416Z,100373.69
2022-10-15T12:57:26.190Z,100369.56
2022-10-15T12:59:58.449Z,100359.00
2022-10-15T13:02:32.775Z,100356.81
2022-10-15T13:05:00.051Z,100354.94
2022-10-15T13:07:26.958Z,100353.38
2022-10-15T13:09:54.155Z,100365.41
2022-10-15T13:12:26.611Z,100360.97
2022-10-15T13:14:57.099Z,100363.69
2022-10-15T13:17:23.983Z,100352.22
2022-10-15T13:19:56.549Z,100355.87
2022-10-15T13:22:25.468Z,100348.94
2022-10-15T13:24:52.415Z,100342.91
2022-10-15T13:27:26.855Z,100342.81
2022-10-15T13:29:58.172Z,100338.06
2022-10-15T13:32:26.028Z,100338.34
2022-10-15T13:34:54.119Z,100333.56
2022-10-15T13:37:24.938Z,100333.72
2022-10-15T13:39:53.040Z,100333.38
2022-10-15T13:42:21.940Z,100336.84
2022-10-15T13:44:59.560Z,100338.03
2022-10-15T13:47:34.576Z,100342.13
2022-10-15T13:50:19.731Z,100343.78
2022-10-15T13:52:49.187Z,100343.09
2022-10-15T13:55:24.186Z,100339.03
2022-10-15T13:57:52.261Z,100337.44
2022-10-15T14:00:20.406Z,100339.41
2022-10-15T14:02:47.340Z,100345.31
2022-10-15T14:05:19.767Z,100345.06
2022-10-15T14:07:54.396Z,100351.00
2022-10-15T14:10:21.019Z,100342.13
2022-10-15T14:12:52.149Z,100347.69
2022-10-15T14:15:37.920Z,100346.13
2022-10-15T14:18:04.698Z,100356.41
2022-10-15T14:20:31.408Z,100355.87
2022-10-15T14:22:58.180Z,100355.81
2022-10-15T14:25:26.003Z,100361.63
2022-10-15T14:27:53.000Z,100356.59
2022-10-15T14:30:28.059Z,100364.31
2022-10-15T14:32:55.105Z,100362.81
2022-10-15T14:35:22.793Z,100360.62
2022-10-15T14:37:58.706Z,100367.31
2022-10-15T14:40:26.083Z,100367.31
2022-10-15T14:42:55.759Z,100365.16
2022-10-15T14:45:30.965Z,100373.66
2022-10-15T14:48:03.363Z,100371.38
2022-10-15T14:50:32.601Z,100367.62
2022-10-15T14:53:01.228Z,100375.38
2022-10-15T14:55:31.975Z,100371.63
2022-10-15T14:57:59.558Z,100379.06
2022-10-15T15:00:33.366Z,100377.09
2022-10-15T15:03:02.594Z,100386.06
2022-10-15T15:05:29.745Z,100387.25
2022-10-15T15:08:04.325Z,100387.41
2022-10-15T15:10:33.108Z,100375.97
2022-10-15T15:12:59.805Z,100379.06
2022-10-15T15:15:27.901Z,100380.38
2022-10-15T15:17:54.669Z,100381.31
2022-10-15T15:20:21.781Z,100379.91
2022-10-15T15:22:50.598Z,100375.59
2022-10-15T15:25:18.892Z,100379.37
2022-10-15T15:27:45.538Z,100385.59
2022-10-15T15:30:17.335Z,100374.09
2022-10-15T15:32:44.000Z,100373.41
2022-10-15T15:35:21.400Z,100370.22
2022-10-15T15:37:48.016Z,100366.66
2022-10-15T15:40:14.742Z,100380.72
2022-10-15T15:42:41.905Z,100379.31
2022-10-15T15:45:19.597Z,100380.84
2022-10-15T15:47:46.955Z,100384.22
2022-10-15T15:50:14.055Z,100384.25
2022-10-15T15:52:43.543Z,100386.66
2022-10-15T15:55:10.822Z,100387.53
2022-10-15T15:57:37.490Z,100392.25
2022-10-15T16:00:08.064Z,100390.16
2022-10-15T16:02:35.277Z,100392.31
2022-10-15T16:05:02.202Z,100387.88
2022-10-15T16:07:29.155Z,100392.69
2022-10-15T16:09:56.156Z,100388.66
2022-10-15T16:12:22.999Z,100389.19
2022-10-15T16:14:49.673Z,100387.03
2022-10-15T16:17:16.395Z,100389.97
2022-10-15T16:19:43.349Z,100391.78
2022-10-15T16:22:10.208Z,100393.13
2022-10-15T16:24:37.048Z,100406.00
2022-10-15T16:27:03.826Z,100409.50
2022-10-15T16:29:30.433Z,100399.16
2022-10-15T16:31:57.075Z,100408.09
2022-10-15T16:34:24.316Z,100411.34
2022-10-15T16:36:51.309Z,100421.09
2022-10-15T16:39:18.295Z,100422.19
2022-10-15T16:41:44.939Z,100414.59
2022-10-15T16:44:11.625Z,100420.09
2022-10-15T16:46:38.250Z,100430.59
2022-10-15T16:49:05.160Z,100434.09
2022-10-15T16:54:03.675Z,100442.81
2022-10-15T16:56:30.717Z,100449.81
2022-10-15T16:58:57.578Z,100459.31
2022-10-15T17:01:28.990Z,100464.34
2022-10-15T17:03:55.783Z,100463.84
2022-10-15T17:06:24.455Z,100467.53
2022-10-15T17:08:52.233Z,100472.88
2022-10-15T17:11:23.161Z,100465.69
2022-10-15T17:13:50.898Z,100470.91
2022-10-15T17:16:21.864Z,100473.47
2022-10-15T17:18:49.352Z,100469.97
2022-10-15T17:21:18.936Z,100477.09
2022-10-15T17:23:46.297Z,100471.09
2022-10-15T17:26:14.615Z,100482.16
2022-10-15T17:28:41.295Z,100483.94
2022-10-15T17:31:09.314Z,100486.00
2022-10-15T17:33:36.845Z,100486.78
2022-10-15T17:36:04.728Z,100489.56
2022-10-15T17:38:31.883Z,100487.25
2022-10-15T17:40:59.289Z,100487.81
2022-10-15T17:43:26.424Z,100489.88
2022-10-15T17:46:03.141Z,100482.44
2022-10-15T17:48:30.273Z,100496.31
2022-10-15T17:50:59.096Z,100494.56
2022-10-15T17:53:25.838Z,100496.09
2022-10-15T17:55:52.634Z,100500.25
2022-10-15T17:58:20.411Z,100495.41
2022-10-15T18:00:57.617Z,100497.56
2022-10-15T18:03:25.155Z,100497.28
2022-10-15T18:05:51.913Z,100498.06
2022-10-15T18:08:18.639Z,100501.56
2022-10-15T18:10:47.966Z,100506.28
2022-10-15T18:13:14.708Z,100502.81
2022-10-15T18:15:45.067Z,100505.72
2022-10-15T18:18:11.938Z,100516.66
2022-10-15T18:20:41.909Z,100512.22
2022-10-15T18:23:08.552Z,100515.66
2022-10-15T18:25:35.875Z,100514.44
2022-10-15T18:28:02.609Z,100521.63
2022-10-15T18:30:29.593Z,100514.78
2022-10-15T18:32:58.232Z,100525.19
2022-10-15T18:35:25.728Z,100519.00
2022-10-15T18:37:52.558Z,100515.69
2022-10-15T18:40:19.281Z,100521.78
2022-10-15T18:42:47.818Z,100522.25
2022-10-15T18:45:14.727Z,100533.66
2022-10-15T18:47:41.488Z,100529.94
2022-10-15T18:50:08.609Z,100532.47
2022-10-15T18:52:39.814Z,100535.37
2022-10-15T18:55:07.765Z,100530.53
2022-10-15T18:57:35.056Z,100541.69
2022-10-15T19:00:02.057Z,100537.75
2022-10-15T19:02:28.681Z,100538.47
2022-10-15T19:04:55.390Z,100546.00
2022-10-15T19:07:22.021Z,100546.91
2022-10-15T19:09:48.769Z,100556.78
2022-10-15T19:12:15.486Z,100557.09
2022-10-15T19:14:44.374Z,100549.78
2022-10-15T19:17:11.185Z,100562.41
2022-10-15T19:19:38.897Z,100573.22
2022-10-15T19:22:06.217Z,100573.94
2022-10-15T19:24:32.934Z,100568.34
2022-10-15T19:26:59.686Z,100569.03
2022-10-15T19:29:29.294Z,100570.81
2022-10-15T19:31:58.899Z,100579.06
2022-10-15T19:34:26.696Z,100568.41
2022-10-15T19:36:53.695Z,100568.81
2022-10-15T19:39:21.540Z,100577.22
2022-10-15T19:41:48.595Z,100571.66
2022-10-15T19:44:17.271Z,100582.59
2022-10-15T19:46:44.051Z,100574.16
2022-10-15T19:49:11.359Z,100572.50
2022-10-15T19:51:38.192Z,100572.63
2022-10-15T19:54:05.206Z,100576.34
2022-10-15T19:56:33.149Z,100576.50
2022-10-15T19:59:01.123Z,100581.38
2022-10-15T20:01:28.497Z,100590.56
2022-10-15T20:03:58.240Z,100593.00
2022-10-15T20:06:27.064Z,100588.94
2022-10-15T20:08:54.005Z,100591.22
2022-10-15T20:11:20.705Z,100585.72
2022-10-15T20:13:48.060Z,100591.16
2022-10-15T20:16:15.356Z,100581.38
2022-10-15T20:18:44.011Z,100585.84
2022-10-15T20:21:11.642Z,100596.50
2022-10-15T20:23:38.696Z,100601.47
2022-10-15T20:26:07.518Z,100601.69
2022-10-15T20:28:38.081Z,100604.13
2022-10-15T20:31:28.858Z,100608.06
2022-10-15T20:33:55.658Z,100614.59
2022-10-15T20:36:24.432Z,100618.81
2022-10-15T20:38:51.623Z,100618.81
2022-10-15T20:41:18.669Z,100630.16
2022-10-15T20:43:45.804Z,100629.56
2022-10-15T20:46:13.794Z,100630.63
2022-10-15T20:48:41.826Z,100636.19
2022-10-15T20:51:09.554Z,100638.31
2022-10-15T20:53:36.262Z,100640.63
2022-10-15T20:56:03.430Z,100649.91
2022-10-15T20:58:30.282Z,100657.94
2022-10-15T21:00:57.195Z,100664.66
2022-10-15T21:03:23.849Z,100654.69
2022-10-15T21:05:50.386Z,100661.03
2022-10-15T21:08:17.080Z,100668.25
2022-10-15T21:10:43.720Z,100671.78
2022-10-15T21:13:10.267Z,100670.72
2022-10-15T21:15:36.930Z,100663.09
2022-10-15T21:18:03.559Z,100670.13
2022-10-15T21:20:30.428Z,100664.19
2022-10-15T21:22:57.082Z,100669.91
2022-10-15T21:25:23.747Z,100679.97
2022-10-15T21:27:50.414Z,100677.87
2022-10-15T21:30:17.227Z,100682.69
2022-10-15T21:32:43.790Z,100679.91
2022-10-15T21:35:10.503Z,100676.66
2022-10-15T21:37:37.892Z,100668.47
2022-10-15T21:40:05.035Z,100673.22
2022-10-15T21:42:31.674Z,100674.16
2022-10-15T21:44:58.566Z,100673.91
2022-10-15T21:47:25.722Z,100683.22
2022-10-15T21:49:52.542Z,100680.16
2022-10-15T21:52:19.129Z,100684.06
2022-10-15T21:54:45.802Z,100680.13
2022-10-15T21:57:12.560Z,100676.84
2022-10-15T21:59:39.211Z,100679.28
2022-10-15T22:02:05.995Z,100682.22
2022-10-15T22:04:35.868Z,100687.44
2022-10-15T22:07:03.177Z,100685.94
2022-10-15T22:09:30.270Z,100689.62
2022-10-15T22:11:56.820Z,100684.63
2022-10-15T22:14:23.443Z,100678.75
2022-10-15T22:16:50.020Z,100688.44
2022-10-15T22:19:16.851Z,100692.34
2022-10-15T22:21:43.465Z,100692.72
2022-10-15T22:24:12.995Z,100683.47
2022-10-15T22:26:40.861Z,100675.59
2022-10-15T22:29:09.324Z,100679.88
2022-10-15T22:31:35.969Z,100676.06
2022-10-15T22:34:02.574Z,100676.06
2022-10-15T22:36:30.247Z,100682.38
2022-10-15T22:39:06.760Z,100675.72
2022-10-15T22:41:38.787Z,100688.63
2022-10-15T22:44:06.233Z,100679.66
2022-10-15T22:46:34.006Z,100687.44
2022-10-15T22:49:00.653Z,100684.28
2022-10-15T22:51:27.306Z,100690.97
2022-10-15T22:53:54.629Z,100691.63
2022-10-15T22:56:21.205Z,100692.53
2022-10-15T22:58:47.761Z,100703.84
2022-10-15T23:01:15.969Z,100712.28
2022-10-15T23:03:43.989Z,100719.75
2022-10-15T23:06:10.968Z,100714.34
2022-10-15T23:08:38.065Z,100717.25
2022-10-15T23:11:12.102Z,100712.97
2022-10-15T23:13:39.551Z,100719.34
2022-10-15T23:16:11.333Z,100725.28
2022-10-15T23:18:37.992Z,100727.38
2022-10-15T23:21:05.570Z,100718.09
2022-10-15T23:23:32.207Z,100724.19
2022-10-15T23:25:58.824Z,100735.25
2022-10-15T23:28:25.548Z,100723.62
2022-10-15T23:30:52.242Z,100725.94
2022-10-15T23:33:18.805Z,100729.50
2022-10-15T23:35:45.442Z,100718.78
2022-10-15T23:38:13.176Z,100720.47
2022-10-15T23:40:39.743Z,100731.31
2022-10-15T23:43:06.277Z,100728.97
2022-10-15T23:45:34.056Z,100736.00
2022-10-15T23:48:02.396Z,100732.81
2022-10-15T23:50:33.971Z,100728.16
2022-10-15T23:53:00.570Z,100736.72
2022-10-15T23:55:27.153Z,100735.75
2022-10-15T23:57:53.783Z,100744.59
